sensor_id;sensor_type;location;lat;lon;timestamp;P1;durP1;ratioP1;P2;durP2;ratioP2
15936;SDS011;9163;48.818;8.976;2024-01-30T00:00:49;8.70;;;5.80;;
15936;SDS011;9163;48.818;8.976;2024-01-30T00:03:16;8.07;;;5.90;;
15936;SDS011;9163;48.818;8.976;2024-01-30T00:05:43;10.13;;;6.23;;
15936;SDS011;9163;48.818;8.976;2024-01-30T00:08:12;9.13;;;5.90;;
15936;SDS011;9163;48.818;8.976;2024-01-30T00:10:39;9.10;;;5.40;;
15936;SDS011;9163;48.818;8.976;2024-01-30T00:13:06;8.43;;;5.33;;
15936;SDS011;9163;48.818;8.976;2024-01-30T00:15:34;7.60;;;5.20;;
15936;SDS011;9163;48.818;8.976;2024-01-30T00:18:01;8.93;;;4.93;;
15936;SDS011;9163;48.818;8.976;2024-01-30T00:20:28;7.47;;;5.60;;
15936;SDS011;9163;48.818;8.976;2024-01-30T00:22:55;7.40;;;4.97;;
15936;SDS011;9163;48.818;8.976;2024-01-30T00:25:24;8.77;;;5.50;;
15936;SDS011;9163;48.818;8.976;2024-01-30T00:27:51;9.63;;;5.53;;
15936;SDS011;9163;48.818;8.976;2024-01-30T00:30:19;7.97;;;5.17;;
15936;SDS011;9163;48.818;8.976;2024-01-30T00:32:47;9.20;;;5.83;;
15936;SDS011;9163;48.818;8.976;2024-01-30T00:35:14;7.77;;;5.17;;
15936;SDS011;9163;48.818;8.976;2024-01-30T00:37:41;7.47;;;5.17;;
15936;SDS011;9163;48.818;8.976;2024-01-30T00:40:09;7.57;;;5.60;;
15936;SDS011;9163;48.818;8.976;2024-01-30T00:42:42;8.27;;;5.07;;
15936;SDS011;9163;48.818;8.976;2024-01-30T00:45:11;9.30;;;5.60;;
15936;SDS011;9163;48.818;8.976;2024-01-30T00:47:39;8.97;;;5.57;;
15936;SDS011;9163;48.818;8.976;2024-01-30T00:50:07;8.03;;;5.07;;
15936;SDS011;9163;48.818;8.976;2024-01-30T00:52:34;6.57;;;4.90;;
15936;SDS011;9163;48.818;8.976;2024-01-30T00:55:02;7.37;;;5.23;;
15936;SDS011;9163;48.818;8.976;2024-01-30T00:57:29;8.97;;;5.07;;
15936;SDS011;9163;48.818;8.976;2024-01-30T00:59:58;8.03;;;5.30;;
15936;SDS011;9163;48.818;8.976;2024-01-30T01:02:25;8.77;;;5.07;;
15936;SDS011;9163;48.818;8.976;2024-01-30T01:04:52;8.20;;;5.10;;
15936;SDS011;9163;48.818;8.976;2024-01-30T01:07:19;6.93;;;4.53;;
15936;SDS011;9163;48.818;8.976;2024-01-30T01:09:47;9.03;;;5.63;;
15936;SDS011;9163;48.818;8.976;2024-01-30T01:12:14;7.70;;;5.50;;
15936;SDS011;9163;48.818;8.976;2024-01-30T01:14:41;7.40;;;5.90;;
15936;SDS011;9163;48.818;8.976;2024-01-30T01:17:10;9.57;;;6.00;;
15936;SDS011;9163;48.818;8.976;2024-01-30T01:19:37;7.97;;;5.90;;
15936;SDS011;9163;48.818;8.976;2024-01-30T01:22:04;11.57;;;6.47;;
15936;SDS011;9163;48.818;8.976;2024-01-30T01:24:34;9.10;;;5.67;;
15936;SDS011;9163;48.818;8.976;2024-01-30T01:27:02;10.30;;;6.00;;
15936;SDS011;9163;48.818;8.976;2024-01-30T01:29:29;8.17;;;6.17;;
15936;SDS011;9163;48.818;8.976;2024-01-30T01:31:57;9.40;;;6.20;;
15936;SDS011;9163;48.818;8.976;2024-01-30T01:34:26;7.50;;;5.80;;
15936;SDS011;9163;48.818;8.976;2024-01-30T01:36:53;9.03;;;6.37;;
15936;SDS011;9163;48.818;8.976;2024-01-30T01:39:21;8.40;;;5.93;;
15936;SDS011;9163;48.818;8.976;2024-01-30T01:41:49;9.10;;;6.30;;
15936;SDS011;9163;48.818;8.976;2024-01-30T01:44:17;9.33;;;5.80;;
15936;SDS011;9163;48.818;8.976;2024-01-30T01:46:44;10.60;;;6.07;;
15936;SDS011;9163;48.818;8.976;2024-01-30T01:49:11;8.97;;;5.43;;
15936;SDS011;9163;48.818;8.976;2024-01-30T01:51:42;8.87;;;6.50;;
15936;SDS011;9163;48.818;8.976;2024-01-30T01:54:11;10.03;;;6.27;;
15936;SDS011;9163;48.818;8.976;2024-01-30T01:56:39;9.43;;;6.43;;
15936;SDS011;9163;48.818;8.976;2024-01-30T01:59:08;10.47;;;6.53;;
15936;SDS011;9163;48.818;8.976;2024-01-30T02:01:36;8.63;;;5.67;;
15936;SDS011;9163;48.818;8.976;2024-01-30T02:04:04;9.97;;;6.27;;
15936;SDS011;9163;48.818;8.976;2024-01-30T02:06:31;8.20;;;5.83;;
15936;SDS011;9163;48.818;8.976;2024-01-30T02:09:01;7.83;;;5.50;;
15936;SDS011;9163;48.818;8.976;2024-01-30T02:11:30;9.57;;;6.03;;
15936;SDS011;9163;48.818;8.976;2024-01-30T02:14:01;7.93;;;5.57;;
15936;SDS011;9163;48.818;8.976;2024-01-30T02:16:29;8.83;;;5.53;;
15936;SDS011;9163;48.818;8.976;2024-01-30T02:18:56;8.67;;;5.97;;
15936;SDS011;9163;48.818;8.976;2024-01-30T02:21:25;8.60;;;5.90;;
15936;SDS011;9163;48.818;8.976;2024-01-30T02:23:52;7.90;;;5.70;;
15936;SDS011;9163;48.818;8.976;2024-01-30T02:26:21;8.37;;;5.60;;
15936;SDS011;9163;48.818;8.976;2024-01-30T02:28:49;9.37;;;5.73;;
15936;SDS011;9163;48.818;8.976;2024-01-30T02:31:16;8.07;;;5.77;;
15936;SDS011;9163;48.818;8.976;2024-01-30T02:33:42;7.70;;;5.30;;
15936;SDS011;9163;48.818;8.976;2024-01-30T02:36:09;7.93;;;5.80;;
15936;SDS011;9163;48.818;8.976;2024-01-30T02:38:38;9.53;;;5.97;;
15936;SDS011;9163;48.818;8.976;2024-01-30T02:41:05;8.07;;;5.50;;
15936;SDS011;9163;48.818;8.976;2024-01-30T02:43:34;7.57;;;5.90;;
15936;SDS011;9163;48.818;8.976;2024-01-30T02:46:01;9.20;;;5.60;;
15936;SDS011;9163;48.818;8.976;2024-01-30T02:48:28;8.83;;;5.57;;
15936;SDS011;9163;48.818;8.976;2024-01-30T02:50:56;7.80;;;5.90;;
15936;SDS011;9163;48.818;8.976;2024-01-30T02:53:23;8.57;;;5.80;;
15936;SDS011;9163;48.818;8.976;2024-01-30T02:55:52;9.90;;;6.37;;
15936;SDS011;9163;48.818;8.976;2024-01-30T02:58:19;8.53;;;6.17;;
15936;SDS011;9163;48.818;8.976;2024-01-30T03:00:46;9.40;;;6.33;;
15936;SDS011;9163;48.818;8.976;2024-01-30T03:03:13;8.87;;;5.70;;
15936;SDS011;9163;48.818;8.976;2024-01-30T03:05:41;8.13;;;5.73;;
15936;SDS011;9163;48.818;8.976;2024-01-30T03:08:08;9.80;;;6.10;;
15936;SDS011;9163;48.818;8.976;2024-01-30T03:10:35;10.83;;;6.17;;
15936;SDS011;9163;48.818;8.976;2024-01-30T03:13:04;8.27;;;5.43;;
15936;SDS011;9163;48.818;8.976;2024-01-30T03:15:31;7.43;;;5.73;;
15936;SDS011;9163;48.818;8.976;2024-01-30T03:17:59;11.47;;;5.73;;
15936;SDS011;9163;48.818;8.976;2024-01-30T03:20:26;7.60;;;5.10;;
15936;SDS011;9163;48.818;8.976;2024-01-30T03:22:54;7.80;;;5.17;;
15936;SDS011;9163;48.818;8.976;2024-01-30T03:25:21;7.53;;;5.07;;
15936;SDS011;9163;48.818;8.976;2024-01-30T03:27:49;7.17;;;5.07;;
15936;SDS011;9163;48.818;8.976;2024-01-30T03:30:18;7.03;;;4.93;;
15936;SDS011;9163;48.818;8.976;2024-01-30T03:32:45;7.37;;;4.97;;
15936;SDS011;9163;48.818;8.976;2024-01-30T03:35:12;7.33;;;5.10;;
15936;SDS011;9163;48.818;8.976;2024-01-30T03:37:41;6.53;;;5.00;;
15936;SDS011;9163;48.818;8.976;2024-01-30T03:40:10;9.13;;;5.13;;
15936;SDS011;9163;48.818;8.976;2024-01-30T03:42:38;8.27;;;5.40;;
15936;SDS011;9163;48.818;8.976;2024-01-30T03:45:06;7.53;;;5.20;;
15936;SDS011;9163;48.818;8.976;2024-01-30T03:47:35;6.90;;;5.23;;
15936;SDS011;9163;48.818;8.976;2024-01-30T03:50:02;7.47;;;5.23;;
15936;SDS011;9163;48.818;8.976;2024-01-30T03:52:32;9.03;;;5.53;;
15936;SDS011;9163;48.818;8.976;2024-01-30T03:54:59;8.13;;;5.10;;
15936;SDS011;9163;48.818;8.976;2024-01-30T03:57:26;9.37;;;5.30;;
15936;SDS011;9163;48.818;8.976;2024-01-30T03:59:53;8.70;;;5.30;;
15936;SDS011;9163;48.818;8.976;2024-01-30T04:02:21;8.47;;;5.40;;
15936;SDS011;9163;48.818;8.976;2024-01-30T04:04:49;7.83;;;5.33;;
15936;SDS011;9163;48.818;8.976;2024-01-30T04:07:16;9.23;;;5.80;;
15936;SDS011;9163;48.818;8.976;2024-01-30T04:09:44;6.80;;;5.50;;
15936;SDS011;9163;48.818;8.976;2024-01-30T04:12:11;7.33;;;4.93;;
15936;SDS011;9163;48.818;8.976;2024-01-30T04:14:39;8.40;;;5.43;;
15936;SDS011;9163;48.818;8.976;2024-01-30T04:17:06;8.47;;;4.97;;
15936;SDS011;9163;48.818;8.976;2024-01-30T04:19:36;8.53;;;4.90;;
15936;SDS011;9163;48.818;8.976;2024-01-30T04:22:06;8.17;;;5.33;;
15936;SDS011;9163;48.818;8.976;2024-01-30T04:24:33;6.07;;;4.40;;
15936;SDS011;9163;48.818;8.976;2024-01-30T04:27:00;7.43;;;4.87;;
15936;SDS011;9163;48.818;8.976;2024-01-30T04:29:27;8.33;;;4.90;;
15936;SDS011;9163;48.818;8.976;2024-01-30T04:31:55;6.03;;;4.40;;
15936;SDS011;9163;48.818;8.976;2024-01-30T04:34:22;5.53;;;4.57;;
15936;SDS011;9163;48.818;8.976;2024-01-30T04:36:49;6.27;;;4.50;;
15936;SDS011;9163;48.818;8.976;2024-01-30T04:39:18;6.07;;;4.37;;
15936;SDS011;9163;48.818;8.976;2024-01-30T04:41:45;6.40;;;4.70;;
15936;SDS011;9163;48.818;8.976;2024-01-30T04:44:13;8.33;;;5.10;;
15936;SDS011;9163;48.818;8.976;2024-01-30T04:46:41;7.30;;;5.10;;
15936;SDS011;9163;48.818;8.976;2024-01-30T04:49:08;8.93;;;5.07;;
15936;SDS011;9163;48.818;8.976;2024-01-30T04:51:35;7.40;;;5.00;;
15936;SDS011;9163;48.818;8.976;2024-01-30T04:54:02;7.03;;;4.60;;
15936;SDS011;9163;48.818;8.976;2024-01-30T04:56:31;6.40;;;4.37;;
15936;SDS011;9163;48.818;8.976;2024-01-30T04:58:59;5.10;;;4.20;;
15936;SDS011;9163;48.818;8.976;2024-01-30T05:01:26;7.93;;;4.53;;
15936;SDS011;9163;48.818;8.976;2024-01-30T05:03:53;6.67;;;4.77;;
15936;SDS011;9163;48.818;8.976;2024-01-30T05:06:24;8.47;;;5.00;;
15936;SDS011;9163;48.818;8.976;2024-01-30T05:08:51;6.33;;;5.00;;
15936;SDS011;9163;48.818;8.976;2024-01-30T05:11:19;7.83;;;4.97;;
15936;SDS011;9163;48.818;8.976;2024-01-30T05:13:47;6.03;;;4.80;;
15936;SDS011;9163;48.818;8.976;2024-01-30T05:16:14;6.13;;;5.00;;
15936;SDS011;9163;48.818;8.976;2024-01-30T05:18:42;7.33;;;5.00;;
15936;SDS011;9163;48.818;8.976;2024-01-30T05:21:10;8.47;;;5.50;;
15936;SDS011;9163;48.818;8.976;2024-01-30T05:23:37;6.93;;;5.60;;
15936;SDS011;9163;48.818;8.976;2024-01-30T05:26:04;10.13;;;5.70;;
15936;SDS011;9163;48.818;8.976;2024-01-30T05:28:32;7.73;;;5.60;;
15936;SDS011;9163;48.818;8.976;2024-01-30T05:31:01;7.57;;;5.40;;
15936;SDS011;9163;48.818;8.976;2024-01-30T05:33:28;8.73;;;5.27;;
15936;SDS011;9163;48.818;8.976;2024-01-30T05:35:55;8.67;;;5.37;;
15936;SDS011;9163;48.818;8.976;2024-01-30T05:38:22;7.83;;;5.20;;
15936;SDS011;9163;48.818;8.976;2024-01-30T05:40:50;7.80;;;5.33;;
15936;SDS011;9163;48.818;8.976;2024-01-30T05:43:17;8.20;;;5.37;;
15936;SDS011;9163;48.818;8.976;2024-01-30T05:45:44;24.20;;;11.87;;
15936;SDS011;9163;48.818;8.976;2024-01-30T05:48:13;13.63;;;8.80;;
15936;SDS011;9163;48.818;8.976;2024-01-30T05:50:40;8.47;;;6.90;;
15936;SDS011;9163;48.818;8.976;2024-01-30T05:53:07;9.03;;;6.33;;
15936;SDS011;9163;48.818;8.976;2024-01-30T05:55:35;9.90;;;6.60;;
15936;SDS011;9163;48.818;8.976;2024-01-30T05:58:02;10.40;;;5.90;;
15936;SDS011;9163;48.818;8.976;2024-01-30T06:00:30;8.33;;;5.70;;
15936;SDS011;9163;48.818;8.976;2024-01-30T06:02:57;7.80;;;5.10;;
15936;SDS011;9163;48.818;8.976;2024-01-30T06:05:26;6.63;;;5.10;;
15936;SDS011;9163;48.818;8.976;2024-01-30T06:07:53;7.03;;;4.93;;
15936;SDS011;9163;48.818;8.976;2024-01-30T06:10:20;8.00;;;5.40;;
15936;SDS011;9163;48.818;8.976;2024-01-30T06:12:48;7.80;;;5.63;;
15936;SDS011;9163;48.818;8.976;2024-01-30T06:15:15;8.00;;;5.13;;
15936;SDS011;9163;48.818;8.976;2024-01-30T06:17:42;9.43;;;5.10;;
15936;SDS011;9163;48.818;8.976;2024-01-30T06:20:09;10.67;;;8.30;;
15936;SDS011;9163;48.818;8.976;2024-01-30T06:22:38;7.57;;;5.50;;
15936;SDS011;9163;48.818;8.976;2024-01-30T06:25:06;6.93;;;5.03;;
15936;SDS011;9163;48.818;8.976;2024-01-30T06:27:33;8.87;;;6.20;;
15936;SDS011;9163;48.818;8.976;2024-01-30T06:30:01;11.50;;;8.67;;
15936;SDS011;9163;48.818;8.976;2024-01-30T06:32:28;9.93;;;8.23;;
15936;SDS011;9163;48.818;8.976;2024-01-30T06:34:59;21.50;;;13.50;;
15936;SDS011;9163;48.818;8.976;2024-01-30T06:37:27;26.73;;;17.93;;
15936;SDS011;9163;48.818;8.976;2024-01-30T06:39:56;20.00;;;13.03;;
15936;SDS011;9163;48.818;8.976;2024-01-30T06:42:23;37.07;;;21.40;;
15936;SDS011;9163;48.818;8.976;2024-01-30T06:44:50;37.93;;;22.50;;
15936;SDS011;9163;48.818;8.976;2024-01-30T06:47:17;49.10;;;25.67;;
15936;SDS011;9163;48.818;8.976;2024-01-30T06:49:44;23.50;;;13.20;;
15936;SDS011;9163;48.818;8.976;2024-01-30T06:52:12;10.77;;;7.10;;
15936;SDS011;9163;48.818;8.976;2024-01-30T06:54:39;10.03;;;7.20;;
15936;SDS011;9163;48.818;8.976;2024-01-30T06:57:08;7.57;;;6.37;;
15936;SDS011;9163;48.818;8.976;2024-01-30T06:59:37;8.13;;;6.03;;
15936;SDS011;9163;48.818;8.976;2024-01-30T07:02:08;9.13;;;5.73;;
15936;SDS011;9163;48.818;8.976;2024-01-30T07:04:36;6.40;;;5.23;;
15936;SDS011;9163;48.818;8.976;2024-01-30T07:07:04;8.43;;;5.20;;
15936;SDS011;9163;48.818;8.976;2024-01-30T07:09:37;10.97;;;5.93;;
15936;SDS011;9163;48.818;8.976;2024-01-30T07:12:05;8.70;;;5.27;;
15936;SDS011;9163;48.818;8.976;2024-01-30T07:14:34;15.37;;;5.70;;
15936;SDS011;9163;48.818;8.976;2024-01-30T07:17:01;11.70;;;7.70;;
15936;SDS011;9163;48.818;8.976;2024-01-30T07:19:29;7.47;;;4.80;;
15936;SDS011;9163;48.818;8.976;2024-01-30T07:21:56;8.77;;;6.37;;
15936;SDS011;9163;48.818;8.976;2024-01-30T07:24:23;12.23;;;7.43;;
15936;SDS011;9163;48.818;8.976;2024-01-30T07:26:51;9.13;;;6.83;;
15936;SDS011;9163;48.818;8.976;2024-01-30T07:29:19;8.73;;;5.73;;
15936;SDS011;9163;48.818;8.976;2024-01-30T07:31:48;8.97;;;6.40;;
15936;SDS011;9163;48.818;8.976;2024-01-30T07:34:16;9.00;;;6.40;;
15936;SDS011;9163;48.818;8.976;2024-01-30T07:36:43;7.57;;;5.00;;
15936;SDS011;9163;48.818;8.976;2024-01-30T07:39:11;11.20;;;4.83;;
15936;SDS011;9163;48.818;8.976;2024-01-30T07:41:39;11.13;;;6.63;;
15936;SDS011;9163;48.818;8.976;2024-01-30T07:44:06;10.97;;;9.10;;
15936;SDS011;9163;48.818;8.976;2024-01-30T07:46:33;10.20;;;6.17;;
15936;SDS011;9163;48.818;8.976;2024-01-30T07:49:02;11.90;;;5.70;;
15936;SDS011;9163;48.818;8.976;2024-01-30T07:51:29;6.07;;;4.60;;
15936;SDS011;9163;48.818;8.976;2024-01-30T07:53:58;10.07;;;5.10;;
15936;SDS011;9163;48.818;8.976;2024-01-30T07:56:25;10.00;;;4.73;;
15936;SDS011;9163;48.818;8.976;2024-01-30T07:58:52;8.73;;;6.67;;
15936;SDS011;9163;48.818;8.976;2024-01-30T08:01:20;10.03;;;5.13;;
15936;SDS011;9163;48.818;8.976;2024-01-30T08:03:47;13.90;;;8.57;;
15936;SDS011;9163;48.818;8.976;2024-01-30T08:06:15;9.43;;;5.60;;
15936;SDS011;9163;48.818;8.976;2024-01-30T08:08:43;9.40;;;5.77;;
15936;SDS011;9163;48.818;8.976;2024-01-30T08:11:10;12.93;;;8.20;;
15936;SDS011;9163;48.818;8.976;2024-01-30T08:13:38;19.30;;;10.30;;
15936;SDS011;9163;48.818;8.976;2024-01-30T08:16:05;20.87;;;11.10;;
15936;SDS011;9163;48.818;8.976;2024-01-30T08:18:33;14.00;;;7.30;;
15936;SDS011;9163;48.818;8.976;2024-01-30T08:21:00;9.60;;;5.50;;
15936;SDS011;9163;48.818;8.976;2024-01-30T08:23:29;9.87;;;5.40;;
15936;SDS011;9163;48.818;8.976;2024-01-30T08:25:56;7.47;;;5.60;;
15936;SDS011;9163;48.818;8.976;2024-01-30T08:28:24;11.70;;;5.00;;
15936;SDS011;9163;48.818;8.976;2024-01-30T08:30:51;7.27;;;4.80;;
15936;SDS011;9163;48.818;8.976;2024-01-30T08:33:19;10.67;;;4.63;;
15936;SDS011;9163;48.818;8.976;2024-01-30T08:35:46;6.60;;;4.10;;
15936;SDS011;9163;48.818;8.976;2024-01-30T08:38:13;5.77;;;3.90;;
15936;SDS011;9163;48.818;8.976;2024-01-30T08:40:42;6.47;;;3.73;;
15936;SDS011;9163;48.818;8.976;2024-01-30T08:43:10;7.50;;;3.87;;
15936;SDS011;9163;48.818;8.976;2024-01-30T08:45:38;11.53;;;3.83;;
15936;SDS011;9163;48.818;8.976;2024-01-30T08:48:05;6.70;;;4.87;;
15936;SDS011;9163;48.818;8.976;2024-01-30T08:50:33;11.87;;;6.17;;
15936;SDS011;9163;48.818;8.976;2024-01-30T08:53:01;9.13;;;5.37;;
15936;SDS011;9163;48.818;8.976;2024-01-30T08:55:28;7.47;;;4.60;;
15936;SDS011;9163;48.818;8.976;2024-01-30T08:57:56;9.10;;;4.30;;
15936;SDS011;9163;48.818;8.976;2024-01-30T09:00:24;8.00;;;4.17;;
15936;SDS011;9163;48.818;8.976;2024-01-30T09:02:51;7.53;;;3.80;;
15936;SDS011;9163;48.818;8.976;2024-01-30T09:05:18;6.50;;;4.03;;
15936;SDS011;9163;48.818;8.976;2024-01-30T09:07:46;6.43;;;3.57;;
15936;SDS011;9163;48.818;8.976;2024-01-30T09:10:13;6.10;;;3.97;;
15936;SDS011;9163;48.818;8.976;2024-01-30T09:12:41;6.93;;;3.97;;
15936;SDS011;9163;48.818;8.976;2024-01-30T09:15:10;8.47;;;4.83;;
15936;SDS011;9163;48.818;8.976;2024-01-30T09:17:37;8.97;;;5.50;;
15936;SDS011;9163;48.818;8.976;2024-01-30T09:20:05;7.63;;;5.57;;
15936;SDS011;9163;48.818;8.976;2024-01-30T09:22:34;14.00;;;7.80;;
15936;SDS011;9163;48.818;8.976;2024-01-30T09:25:01;7.97;;;5.80;;
15936;SDS011;9163;48.818;8.976;2024-01-30T09:27:29;13.20;;;7.50;;
15936;SDS011;9163;48.818;8.976;2024-01-30T09:29:56;12.53;;;7.57;;
15936;SDS011;9163;48.818;8.976;2024-01-30T09:32:25;10.77;;;7.27;;
15936;SDS011;9163;48.818;8.976;2024-01-30T09:34:52;5.70;;;4.50;;
15936;SDS011;9163;48.818;8.976;2024-01-30T09:37:19;7.03;;;4.67;;
15936;SDS011;9163;48.818;8.976;2024-01-30T09:39:47;13.13;;;6.53;;
15936;SDS011;9163;48.818;8.976;2024-01-30T09:42:16;14.77;;;9.00;;
15936;SDS011;9163;48.818;8.976;2024-01-30T09:44:50;12.97;;;6.83;;
15936;SDS011;9163;48.818;8.976;2024-01-30T09:47:18;8.40;;;4.93;;
15936;SDS011;9163;48.818;8.976;2024-01-30T09:49:47;8.00;;;5.40;;
15936;SDS011;9163;48.818;8.976;2024-01-30T09:52:15;8.37;;;5.23;;
15936;SDS011;9163;48.818;8.976;2024-01-30T09:54:42;9.20;;;5.40;;
15936;SDS011;9163;48.818;8.976;2024-01-30T09:57:11;6.73;;;4.87;;
15936;SDS011;9163;48.818;8.976;2024-01-30T09:59:38;8.33;;;4.23;;
15936;SDS011;9163;48.818;8.976;2024-01-30T10:02:06;6.80;;;4.10;;
15936;SDS011;9163;48.818;8.976;2024-01-30T10:04:34;5.90;;;3.73;;
15936;SDS011;9163;48.818;8.976;2024-01-30T10:07:03;6.00;;;3.77;;
15936;SDS011;9163;48.818;8.976;2024-01-30T10:09:31;5.87;;;4.10;;
15936;SDS011;9163;48.818;8.976;2024-01-30T10:11:59;6.33;;;3.77;;
15936;SDS011;9163;48.818;8.976;2024-01-30T10:14:29;5.70;;;3.70;;
15936;SDS011;9163;48.818;8.976;2024-01-30T10:16:57;5.83;;;3.53;;
15936;SDS011;9163;48.818;8.976;2024-01-30T10:19:24;6.17;;;3.30;;
15936;SDS011;9163;48.818;8.976;2024-01-30T10:21:52;5.43;;;3.30;;
15936;SDS011;9163;48.818;8.976;2024-01-30T10:24:24;5.60;;;4.00;;
15936;SDS011;9163;48.818;8.976;2024-01-30T10:26:52;9.13;;;4.10;;
15936;SDS011;9163;48.818;8.976;2024-01-30T10:29:20;4.63;;;3.70;;
15936;SDS011;9163;48.818;8.976;2024-01-30T10:31:57;6.33;;;3.93;;
15936;SDS011;9163;48.818;8.976;2024-01-30T10:34:25;9.47;;;5.03;;
15936;SDS011;9163;48.818;8.976;2024-01-30T10:36:58;11.97;;;7.33;;
15936;SDS011;9163;48.818;8.976;2024-01-30T10:39:34;9.23;;;6.00;;
15936;SDS011;9163;48.818;8.976;2024-01-30T10:42:05;12.50;;;7.30;;
15936;SDS011;9163;48.818;8.976;2024-01-30T10:44:35;14.23;;;7.40;;
15936;SDS011;9163;48.818;8.976;2024-01-30T10:47:11;12.93;;;7.03;;
15936;SDS011;9163;48.818;8.976;2024-01-30T10:49:40;8.80;;;5.17;;
15936;SDS011;9163;48.818;8.976;2024-01-30T10:52:09;7.67;;;4.83;;
15936;SDS011;9163;48.818;8.976;2024-01-30T10:54:39;7.10;;;4.50;;
15936;SDS011;9163;48.818;8.976;2024-01-30T10:57:10;6.27;;;4.20;;
15936;SDS011;9163;48.818;8.976;2024-01-30T10:59:38;6.27;;;4.60;;
15936;SDS011;9163;48.818;8.976;2024-01-30T11:02:06;5.77;;;4.30;;
15936;SDS011;9163;48.818;8.976;2024-01-30T11:04:37;9.57;;;4.60;;
15936;SDS011;9163;48.818;8.976;2024-01-30T11:07:13;6.43;;;4.47;;
15936;SDS011;9163;48.818;8.976;2024-01-30T11:09:49;9.00;;;5.20;;
15936;SDS011;9163;48.818;8.976;2024-01-30T11:12:20;6.87;;;4.30;;
15936;SDS011;9163;48.818;8.976;2024-01-30T11:14:49;6.97;;;4.27;;
15936;SDS011;9163;48.818;8.976;2024-01-30T11:17:16;6.37;;;4.03;;
15936;SDS011;9163;48.818;8.976;2024-01-30T11:19:44;5.53;;;3.80;;
15936;SDS011;9163;48.818;8.976;2024-01-30T11:22:13;7.93;;;4.27;;
15936;SDS011;9163;48.818;8.976;2024-01-30T11:24:40;5.70;;;3.80;;
15936;SDS011;9163;48.818;8.976;2024-01-30T11:27:09;6.70;;;3.67;;
15936;SDS011;9163;48.818;8.976;2024-01-30T11:29:36;7.40;;;4.33;;
15936;SDS011;9163;48.818;8.976;2024-01-30T11:32:04;7.93;;;3.63;;
15936;SDS011;9163;48.818;8.976;2024-01-30T11:34:32;9.60;;;4.30;;
15936;SDS011;9163;48.818;8.976;2024-01-30T11:37:03;10.03;;;4.90;;
15936;SDS011;9163;48.818;8.976;2024-01-30T11:39:32;6.87;;;4.13;;
15936;SDS011;9163;48.818;8.976;2024-01-30T11:42:00;6.67;;;4.03;;
15936;SDS011;9163;48.818;8.976;2024-01-30T11:44:31;5.67;;;3.83;;
15936;SDS011;9163;48.818;8.976;2024-01-30T11:46:59;7.90;;;3.83;;
15936;SDS011;9163;48.818;8.976;2024-01-30T11:49:27;6.63;;;4.10;;
15936;SDS011;9163;48.818;8.976;2024-01-30T11:51:54;5.17;;;3.83;;
15936;SDS011;9163;48.818;8.976;2024-01-30T11:54:21;7.30;;;4.23;;
15936;SDS011;9163;48.818;8.976;2024-01-30T11:56:49;8.13;;;4.00;;
15936;SDS011;9163;48.818;8.976;2024-01-30T11:59:16;10.87;;;4.13;;
15936;SDS011;9163;48.818;8.976;2024-01-30T12:01:44;9.27;;;4.30;;
15936;SDS011;9163;48.818;8.976;2024-01-30T12:04:12;8.03;;;4.37;;
15936;SDS011;9163;48.818;8.976;2024-01-30T12:06:39;8.73;;;3.70;;
15936;SDS011;9163;48.818;8.976;2024-01-30T12:09:06;6.97;;;3.87;;
15936;SDS011;9163;48.818;8.976;2024-01-30T12:11:43;7.63;;;3.93;;
15936;SDS011;9163;48.818;8.976;2024-01-30T12:14:11;5.27;;;3.67;;
15936;SDS011;9163;48.818;8.976;2024-01-30T12:16:39;6.27;;;4.00;;
15936;SDS011;9163;48.818;8.976;2024-01-30T12:19:08;5.87;;;3.90;;
15936;SDS011;9163;48.818;8.976;2024-01-30T12:21:35;9.67;;;4.00;;
15936;SDS011;9163;48.818;8.976;2024-01-30T12:24:04;6.83;;;3.53;;
15936;SDS011;9163;48.818;8.976;2024-01-30T12:26:32;6.90;;;3.30;;
15936;SDS011;9163;48.818;8.976;2024-01-30T12:29:00;4.97;;;3.13;;
15936;SDS011;9163;48.818;8.976;2024-01-30T12:31:31;7.00;;;3.33;;
15936;SDS011;9163;48.818;8.976;2024-01-30T12:33:59;5.07;;;3.20;;
15936;SDS011;9163;48.818;8.976;2024-01-30T12:36:28;9.03;;;3.40;;
15936;SDS011;9163;48.818;8.976;2024-01-30T12:38:56;5.60;;;3.00;;
15936;SDS011;9163;48.818;8.976;2024-01-30T12:41:23;4.47;;;3.20;;
15936;SDS011;9163;48.818;8.976;2024-01-30T12:43:54;4.85;;;3.10;;
15936;SDS011;9163;48.818;8.976;2024-01-30T12:46:21;8.18;;;3.20;;
15936;SDS011;9163;48.818;8.976;2024-01-30T12:48:55;6.03;;;3.22;;
15936;SDS011;9163;48.818;8.976;2024-01-30T12:51:22;7.63;;;2.80;;
15936;SDS011;9163;48.818;8.976;2024-01-30T12:53:51;6.10;;;3.20;;
15936;SDS011;9163;48.818;8.976;2024-01-30T12:56:18;5.60;;;3.20;;
15936;SDS011;9163;48.818;8.976;2024-01-30T12:58:45;6.40;;;3.10;;
15936;SDS011;9163;48.818;8.976;2024-01-30T13:01:12;6.13;;;3.00;;
15936;SDS011;9163;48.818;8.976;2024-01-30T13:03:40;4.10;;;2.72;;
15936;SDS011;9163;48.818;8.976;2024-01-30T13:06:07;3.58;;;2.58;;
15936;SDS011;9163;48.818;8.976;2024-01-30T13:08:34;3.60;;;3.15;;
15936;SDS011;9163;48.818;8.976;2024-01-30T13:11:03;4.25;;;2.40;;
15936;SDS011;9163;48.818;8.976;2024-01-30T13:13:31;3.90;;;2.47;;
15936;SDS011;9163;48.818;8.976;2024-01-30T13:15:58;4.40;;;2.60;;
15936;SDS011;9163;48.818;8.976;2024-01-30T13:18:25;4.22;;;2.70;;
15936;SDS011;9163;48.818;8.976;2024-01-30T13:20:52;4.20;;;2.75;;
15936;SDS011;9163;48.818;8.976;2024-01-30T13:23:20;4.57;;;2.60;;
15936;SDS011;9163;48.818;8.976;2024-01-30T13:25:47;4.32;;;2.72;;
15936;SDS011;9163;48.818;8.976;2024-01-30T13:28:16;3.88;;;2.72;;
15936;SDS011;9163;48.818;8.976;2024-01-30T13:30:43;3.47;;;2.40;;
15936;SDS011;9163;48.818;8.976;2024-01-30T13:33:10;3.33;;;2.40;;
15936;SDS011;9163;48.818;8.976;2024-01-30T13:35:38;3.22;;;2.50;;
15936;SDS011;9163;48.818;8.976;2024-01-30T13:38:05;3.75;;;2.40;;
15936;SDS011;9163;48.818;8.976;2024-01-30T13:40:32;3.95;;;2.60;;
15936;SDS011;9163;48.818;8.976;2024-01-30T13:42:59;4.05;;;2.50;;
15936;SDS011;9163;48.818;8.976;2024-01-30T13:45:28;4.90;;;2.50;;
15936;SDS011;9163;48.818;8.976;2024-01-30T13:47:55;5.67;;;2.37;;
15936;SDS011;9163;48.818;8.976;2024-01-30T13:50:23;4.43;;;2.60;;
15936;SDS011;9163;48.818;8.976;2024-01-30T13:52:50;5.60;;;2.80;;
15936;SDS011;9163;48.818;8.976;2024-01-30T13:55:17;3.63;;;2.67;;
15936;SDS011;9163;48.818;8.976;2024-01-30T13:57:44;4.80;;;2.80;;
15936;SDS011;9163;48.818;8.976;2024-01-30T14:00:12;4.27;;;2.70;;
15936;SDS011;9163;48.818;8.976;2024-01-30T14:02:43;4.47;;;2.77;;
15936;SDS011;9163;48.818;8.976;2024-01-30T14:05:10;5.87;;;3.20;;
15936;SDS011;9163;48.818;8.976;2024-01-30T14:07:37;5.00;;;2.70;;
15936;SDS011;9163;48.818;8.976;2024-01-30T14:10:06;5.40;;;2.80;;
15936;SDS011;9163;48.818;8.976;2024-01-30T14:12:34;3.87;;;3.00;;
15936;SDS011;9163;48.818;8.976;2024-01-30T14:15:01;11.37;;;3.83;;
15936;SDS011;9163;48.818;8.976;2024-01-30T14:17:28;8.90;;;3.67;;
15936;SDS011;9163;48.818;8.976;2024-01-30T14:19:57;7.40;;;3.70;;
15936;SDS011;9163;48.818;8.976;2024-01-30T14:22:24;8.00;;;3.50;;
15936;SDS011;9163;48.818;8.976;2024-01-30T14:24:51;7.90;;;3.83;;
15936;SDS011;9163;48.818;8.976;2024-01-30T14:27:18;7.10;;;3.60;;
15936;SDS011;9163;48.818;8.976;2024-01-30T14:29:46;8.37;;;3.90;;
15936;SDS011;9163;48.818;8.976;2024-01-30T14:32:13;7.97;;;3.90;;
15936;SDS011;9163;48.818;8.976;2024-01-30T14:34:40;5.87;;;3.67;;
15936;SDS011;9163;48.818;8.976;2024-01-30T14:37:09;6.33;;;3.97;;
15936;SDS011;9163;48.818;8.976;2024-01-30T14:39:37;4.37;;;3.60;;
15936;SDS011;9163;48.818;8.976;2024-01-30T14:42:06;8.53;;;3.90;;
15936;SDS011;9163;48.818;8.976;2024-01-30T14:44:33;7.43;;;3.30;;
15936;SDS011;9163;48.818;8.976;2024-01-30T14:47:00;6.17;;;3.80;;
15936;SDS011;9163;48.818;8.976;2024-01-30T14:49:28;4.97;;;3.50;;
15936;SDS011;9163;48.818;8.976;2024-01-30T14:51:55;3.70;;;3.13;;
15936;SDS011;9163;48.818;8.976;2024-01-30T14:54:25;5.10;;;3.07;;
15936;SDS011;9163;48.818;8.976;2024-01-30T14:56:52;5.03;;;3.03;;
15936;SDS011;9163;48.818;8.976;2024-01-30T14:59:20;4.77;;;2.77;;
15936;SDS011;9163;48.818;8.976;2024-01-30T15:01:47;4.90;;;2.93;;